sensor_id;sensor_type;location;lat;lon;timestamp;P1;durP1;ratioP1;P2;durP2;ratioP2
15667;SDS011;7934;48.710;9.024;2024-02-23T00:01:55;0.00;;;0.00;;
15667;SDS011;7934;48.710;9.024;2024-02-23T00:04:24;0.00;;;0.00;;
15667;SDS011;7934;48.710;9.024;2024-02-23T00:06:51;0.00;;;0.00;;
15667;SDS011;7934;48.710;9.024;2024-02-23T00:09:18;0.00;;;0.00;;
15667;SDS011;7934;48.710;9.024;2024-02-23T00:11:47;0.00;;;0.00;;
15667;SDS011;7934;48.710;9.024;2024-02-23T00:14:15;0.00;;;0.00;;
15667;SDS011;7934;48.710;9.024;2024-02-23T00:16:44;0.00;;;0.00;;
15667;SDS011;7934;48.710;9.024;2024-02-23T00:19:13;0.00;;;0.00;;
15667;SDS011;7934;48.710;9.024;2024-02-23T00:21:57;0.00;;;0.00;;
15667;SDS011;7934;48.710;9.024;2024-02-23T00:24:35;0.00;;;0.00;;
15667;SDS011;7934;48.710;9.024;2024-02-23T00:27:26;0.00;;;0.00;;
15667;SDS011;7934;48.710;9.024;2024-02-23T00:30:15;0.00;;;0.00;;
15667;SDS011;7934;48.710;9.024;2024-02-23T00:32:47;0.00;;;0.00;;
15667;SDS011;7934;48.710;9.024;2024-02-23T00:35:35;0.00;;;0.00;;
15667;SDS011;7934;48.710;9.024;2024-02-23T00:38:33;0.00;;;0.00;;
15667;SDS011;7934;48.710;9.024;2024-02-23T00:41:04;0.00;;;0.00;;
15667;SDS011;7934;48.710;9.024;2024-02-23T00:43:39;0.00;;;0.00;;
15667;SDS011;7934;48.710;9.024;2024-02-23T00:46:20;0.00;;;0.00;;
15667;SDS011;7934;48.710;9.024;2024-02-23T00:49:04;0.00;;;0.00;;
15667;SDS011;7934;48.710;9.024;2024-02-23T00:51:40;0.00;;;0.00;;
15667;SDS011;7934;48.710;9.024;2024-02-23T00:54:14;0.00;;;0.00;;
15667;SDS011;7934;48.710;9.024;2024-02-23T00:57:14;0.00;;;0.00;;
15667;SDS011;7934;48.710;9.024;2024-02-23T00:59:33;0.00;;;0.00;;
15667;SDS011;7934;48.710;9.024;2024-02-23T01:02:03;0.00;;;0.00;;
15667;SDS011;7934;48.710;9.024;2024-02-23T01:07:39;0.00;;;0.00;;
15667;SDS011;7934;48.710;9.024;2024-02-23T01:10:16;0.00;;;0.00;;
15667;SDS011;7934;48.710;9.024;2024-02-23T01:12:59;0.00;;;0.00;;
15667;SDS011;7934;48.710;9.024;2024-02-23T01:15:41;0.00;;;0.00;;
15667;SDS011;7934;48.710;9.024;2024-02-23T01:18:21;0.00;;;0.00;;
15667;SDS011;7934;48.710;9.024;2024-02-23T01:21:41;0.00;;;0.00;;
15667;SDS011;7934;48.710;9.024;2024-02-23T01:27:04;0.00;;;0.00;;
15667;SDS011;7934;48.710;9.024;2024-02-23T01:29:33;0.00;;;0.00;;
15667;SDS011;7934;48.710;9.024;2024-02-23T01:32:07;0.00;;;0.00;;
15667;SDS011;7934;48.710;9.024;2024-02-23T01:34:50;0.00;;;0.00;;
15667;SDS011;7934;48.710;9.024;2024-02-23T01:37:33;0.83;;;0.83;;
15667;SDS011;7934;48.710;9.024;2024-02-23T01:40:26;0.00;;;0.00;;
15667;SDS011;7934;48.710;9.024;2024-02-23T01:46:25;0.60;;;0.50;;
15667;SDS011;7934;48.710;9.024;2024-02-23T01:49:14;0.80;;;0.63;;
15667;SDS011;7934;48.710;9.024;2024-02-23T01:51:43;2.00;;;0.60;;
15667;SDS011;7934;48.710;9.024;2024-02-23T01:54:11;1.07;;;0.60;;
15667;SDS011;7934;48.710;9.024;2024-02-23T01:56:53;1.87;;;0.80;;
15667;SDS011;7934;48.710;9.024;2024-02-23T01:59:38;2.27;;;0.50;;
15667;SDS011;7934;48.710;9.024;2024-02-23T02:02:32;1.03;;;0.77;;
15667;SDS011;7934;48.710;9.024;2024-02-23T02:05:24;3.10;;;0.90;;
15667;SDS011;7934;48.710;9.024;2024-02-23T02:08:03;2.10;;;0.90;;
15667;SDS011;7934;48.710;9.024;2024-02-23T02:10:47;0.67;;;0.60;;
15667;SDS011;7934;48.710;9.024;2024-02-23T02:13:17;1.50;;;0.60;;
15667;SDS011;7934;48.710;9.024;2024-02-23T02:15:47;0.83;;;0.47;;
15667;SDS011;7934;48.710;9.024;2024-02-23T02:21:25;2.87;;;0.57;;
15667;SDS011;7934;48.710;9.024;2024-02-23T02:24:24;2.43;;;0.63;;
15667;SDS011;7934;48.710;9.024;2024-02-23T02:26:47;2.93;;;0.70;;
15667;SDS011;7934;48.710;9.024;2024-02-23T02:29:22;2.00;;;0.80;;
15667;SDS011;7934;48.710;9.024;2024-02-23T02:31:55;1.40;;;0.70;;
15667;SDS011;7934;48.710;9.024;2024-02-23T02:34:33;4.43;;;0.77;;
15667;SDS011;7934;48.710;9.024;2024-02-23T02:37:36;2.20;;;0.57;;
15667;SDS011;7934;48.710;9.024;2024-02-23T02:40:14;0.90;;;0.70;;
15667;SDS011;7934;48.710;9.024;2024-02-23T02:43:09;2.77;;;0.90;;
15667;SDS011;7934;48.710;9.024;2024-02-23T02:45:42;2.77;;;0.70;;
15667;SDS011;7934;48.710;9.024;2024-02-23T02:48:28;7.00;;;0.67;;
15667;SDS011;7934;48.710;9.024;2024-02-23T02:50:59;5.07;;;0.83;;
15667;SDS011;7934;48.710;9.024;2024-02-23T02:53:31;3.53;;;0.70;;
15667;SDS011;7934;48.710;9.024;2024-02-23T02:56:13;1.07;;;0.70;;
15667;SDS011;7934;48.710;9.024;2024-02-23T02:58:55;1.80;;;0.70;;
15667;SDS011;7934;48.710;9.024;2024-02-23T03:01:36;1.00;;;0.80;;
15667;SDS011;7934;48.710;9.024;2024-02-23T03:04:19;3.20;;;0.80;;
15667;SDS011;7934;48.710;9.024;2024-02-23T03:06:50;0.87;;;0.70;;
15667;SDS011;7934;48.710;9.024;2024-02-23T03:12:21;0.80;;;0.70;;
15667;SDS011;7934;48.710;9.024;2024-02-23T03:14:52;2.60;;;0.73;;
15667;SDS011;7934;48.710;9.024;2024-02-23T03:17:47;0.77;;;0.60;;
15667;SDS011;7934;48.710;9.024;2024-02-23T03:20:42;1.17;;;0.63;;
15667;SDS011;7934;48.710;9.024;2024-02-23T03:23:09;1.97;;;0.53;;
15667;SDS011;7934;48.710;9.024;2024-02-23T03:25:40;0.40;;;0.40;;
15667;SDS011;7934;48.710;9.024;2024-02-23T03:28:29;0.80;;;0.60;;
15667;SDS011;7934;48.710;9.024;2024-02-23T03:31:18;1.23;;;0.57;;
15667;SDS011;7934;48.710;9.024;2024-02-23T03:34:12;2.80;;;0.90;;
15667;SDS011;7934;48.710;9.024;2024-02-23T03:36:44;1.30;;;0.77;;
15667;SDS011;7934;48.710;9.024;2024-02-23T03:39:28;2.07;;;0.63;;
15667;SDS011;7934;48.710;9.024;2024-02-23T03:45:04;3.07;;;0.63;;
15667;SDS011;7934;48.710;9.024;2024-02-23T03:47:47;2.20;;;0.83;;
15667;SDS011;7934;48.710;9.024;2024-02-23T03:50:59;0.60;;;0.60;;
15667;SDS011;7934;48.710;9.024;2024-02-23T03:53:33;2.90;;;1.00;;
15667;SDS011;7934;48.710;9.024;2024-02-23T03:58:16;2.13;;;0.63;;
15667;SDS011;7934;48.710;9.024;2024-02-23T03:59:20;1.33;;;0.50;;
15667;SDS011;7934;48.710;9.024;2024-02-23T04:05:08;1.80;;;0.60;;
15667;SDS011;7934;48.710;9.024;2024-02-23T04:08:14;3.60;;;0.50;;
15667;SDS011;7934;48.710;9.024;2024-02-23T04:10:47;1.63;;;0.60;;
15667;SDS011;7934;48.710;9.024;2024-02-23T04:13:16;6.27;;;0.90;;
15667;SDS011;7934;48.710;9.024;2024-02-23T04:16:24;2.27;;;0.70;;
15667;SDS011;7934;48.710;9.024;2024-02-23T04:19:37;0.77;;;0.53;;
15667;SDS011;7934;48.710;9.024;2024-02-23T04:24:52;2.30;;;1.10;;
15667;SDS011;7934;48.710;9.024;2024-02-23T04:27:19;3.23;;;0.83;;
15667;SDS011;7934;48.710;9.024;2024-02-23T04:29:48;1.27;;;1.00;;
15667;SDS011;7934;48.710;9.024;2024-02-23T04:32:23;1.80;;;0.83;;
15667;SDS011;7934;48.710;9.024;2024-02-23T04:34:51;3.27;;;0.80;;
15667;SDS011;7934;48.710;9.024;2024-02-23T04:37:19;3.17;;;0.80;;
15667;SDS011;7934;48.710;9.024;2024-02-23T04:39:48;0.93;;;0.90;;
15667;SDS011;7934;48.710;9.024;2024-02-23T04:42:17;5.83;;;1.10;;
15667;SDS011;7934;48.710;9.024;2024-02-23T04:44:47;1.37;;;0.90;;
15667;SDS011;7934;48.710;9.024;2024-02-23T04:47:15;1.90;;;0.90;;
15667;SDS011;7934;48.710;9.024;2024-02-23T04:49:42;3.87;;;0.97;;
15667;SDS011;7934;48.710;9.024;2024-02-23T04:52:10;1.43;;;0.80;;
15667;SDS011;7934;48.710;9.024;2024-02-23T04:54:37;1.77;;;1.00;;
15667;SDS011;7934;48.710;9.024;2024-02-23T04:57:05;0.50;;;0.50;;
15667;SDS011;7934;48.710;9.024;2024-02-23T04:59:34;0.87;;;0.67;;
15667;SDS011;7934;48.710;9.024;2024-02-23T05:02:02;2.87;;;0.73;;
15667;SDS011;7934;48.710;9.024;2024-02-23T05:04:29;0.80;;;0.80;;
15667;SDS011;7934;48.710;9.024;2024-02-23T05:06:58;0.70;;;0.70;;
15667;SDS011;7934;48.710;9.024;2024-02-23T05:09:57;2.37;;;0.93;;
15667;SDS011;7934;48.710;9.024;2024-02-23T05:12:28;4.00;;;0.97;;
15667;SDS011;7934;48.710;9.024;2024-02-23T05:14:58;1.10;;;0.80;;
15667;SDS011;7934;48.710;9.024;2024-02-23T05:17:28;5.70;;;1.30;;
15667;SDS011;7934;48.710;9.024;2024-02-23T05:19:55;1.40;;;0.73;;
15667;SDS011;7934;48.710;9.024;2024-02-23T05:22:37;1.20;;;0.90;;
15667;SDS011;7934;48.710;9.024;2024-02-23T05:25:05;1.70;;;0.90;;
15667;SDS011;7934;48.710;9.024;2024-02-23T05:27:34;5.07;;;0.73;;
15667;SDS011;7934;48.710;9.024;2024-02-23T05:30:03;1.20;;;0.90;;
15667;SDS011;7934;48.710;9.024;2024-02-23T05:32:31;0.80;;;0.80;;
15667;SDS011;7934;48.710;9.024;2024-02-23T05:34:58;0.67;;;0.67;;
15667;SDS011;7934;48.710;9.024;2024-02-23T05:37:26;3.20;;;0.93;;
15667;SDS011;7934;48.710;9.024;2024-02-23T05:40:02;3.60;;;0.63;;
15667;SDS011;7934;48.710;9.024;2024-02-23T05:42:36;2.93;;;1.50;;
15667;SDS011;7934;48.710;9.024;2024-02-23T05:45:06;1.03;;;1.03;;
15667;SDS011;7934;48.710;9.024;2024-02-23T05:48:48;3.57;;;1.00;;
15667;SDS011;7934;48.710;9.024;2024-02-23T05:59:33;2.33;;;0.97;;
15667;SDS011;7934;48.710;9.024;2024-02-23T05:59:55;3.37;;;1.20;;
15667;SDS011;7934;48.710;9.024;2024-02-23T06:05:47;4.83;;;0.90;;
15667;SDS011;7934;48.710;9.024;2024-02-23T06:08:16;1.57;;;0.80;;
15667;SDS011;7934;48.710;9.024;2024-02-23T06:10:44;1.13;;;0.80;;
15667;SDS011;7934;48.710;9.024;2024-02-23T06:13:39;1.87;;;0.80;;
15667;SDS011;7934;48.710;9.024;2024-02-23T06:16:09;5.33;;;1.23;;
15667;SDS011;7934;48.710;9.024;2024-02-23T06:18:42;0.80;;;0.80;;
15667;SDS011;7934;48.710;9.024;2024-02-23T06:27:05;1.67;;;1.00;;
15667;SDS011;7934;48.710;9.024;2024-02-23T06:29:33;1.00;;;0.67;;
15667;SDS011;7934;48.710;9.024;2024-02-23T06:32:22;0.70;;;0.70;;
15667;SDS011;7934;48.710;9.024;2024-02-23T06:35:11;4.17;;;1.00;;
15667;SDS011;7934;48.710;9.024;2024-02-23T06:40:00;3.37;;;0.70;;
15667;SDS011;7934;48.710;9.024;2024-02-23T06:46:56;0.90;;;0.90;;
15667;SDS011;7934;48.710;9.024;2024-02-23T06:51:10;1.00;;;0.90;;
15667;SDS011;7934;48.710;9.024;2024-02-23T06:52:30;1.60;;;1.00;;
15667;SDS011;7934;48.710;9.024;2024-02-23T06:54:59;4.27;;;0.90;;
15667;SDS011;7934;48.710;9.024;2024-02-23T06:57:26;2.53;;;1.23;;
15667;SDS011;7934;48.710;9.024;2024-02-23T06:59:56;2.37;;;0.97;;
15667;SDS011;7934;48.710;9.024;2024-02-23T07:02:49;2.60;;;1.17;;
15667;SDS011;7934;48.710;9.024;2024-02-23T07:05:58;1.20;;;0.80;;
15667;SDS011;7934;48.710;9.024;2024-02-23T07:12:36;1.23;;;1.00;;
15667;SDS011;7934;48.710;9.024;2024-02-23T07:16:16;2.27;;;0.93;;
15667;SDS011;7934;48.710;9.024;2024-02-23T07:17:31;3.40;;;1.50;;
15667;SDS011;7934;48.710;9.024;2024-02-23T07:20:02;2.47;;;1.00;;
15667;SDS011;7934;48.710;9.024;2024-02-23T07:22:43;1.20;;;0.67;;
15667;SDS011;7934;48.710;9.024;2024-02-23T07:25:11;0.97;;;0.97;;
15667;SDS011;7934;48.710;9.024;2024-02-23T07:28:02;1.77;;;1.23;;
15667;SDS011;7934;48.710;9.024;2024-02-23T07:30:45;2.00;;;1.00;;
15667;SDS011;7934;48.710;9.024;2024-02-23T07:42:35;0.97;;;0.93;;
15667;SDS011;7934;48.710;9.024;2024-02-23T07:45:02;1.80;;;1.30;;
15667;SDS011;7934;48.710;9.024;2024-02-23T07:47:40;0.77;;;0.70;;
15667;SDS011;7934;48.710;9.024;2024-02-23T07:53:26;3.77;;;0.90;;
15667;SDS011;7934;48.710;9.024;2024-02-23T08:04:52;2.10;;;1.07;;
15667;SDS011;7934;48.710;9.024;2024-02-23T08:07:20;3.80;;;0.93;;
15667;SDS011;7934;48.710;9.024;2024-02-23T08:09:50;2.27;;;0.90;;
15667;SDS011;7934;48.710;9.024;2024-02-23T08:12:18;1.23;;;1.13;;
15667;SDS011;7934;48.710;9.024;2024-02-23T08:14:45;4.73;;;1.53;;
15667;SDS011;7934;48.710;9.024;2024-02-23T08:17:18;1.43;;;1.10;;
15667;SDS011;7934;48.710;9.024;2024-02-23T08:20:16;3.83;;;1.30;;
15667;SDS011;7934;48.710;9.024;2024-02-23T08:22:57;1.63;;;0.80;;
15667;SDS011;7934;48.710;9.024;2024-02-23T08:25:43;0.90;;;0.90;;
15667;SDS011;7934;48.710;9.024;2024-02-23T08:28:59;2.20;;;0.90;;
15667;SDS011;7934;48.710;9.024;2024-02-23T08:31:31;5.93;;;1.07;;
15667;SDS011;7934;48.710;9.024;2024-02-23T08:34:14;1.33;;;0.93;;
15667;SDS011;7934;48.710;9.024;2024-02-23T08:39:35;4.50;;;0.70;;
15667;SDS011;7934;48.710;9.024;2024-02-23T08:42:11;5.07;;;1.20;;
15667;SDS011;7934;48.710;9.024;2024-02-23T08:44:40;6.83;;;1.00;;
15667;SDS011;7934;48.710;9.024;2024-02-23T08:47:57;5.80;;;1.10;;
15667;SDS011;7934;48.710;9.024;2024-02-23T08:50:45;4.17;;;1.30;;
15667;SDS011;7934;48.710;9.024;2024-02-23T08:53:26;1.60;;;0.80;;
15667;SDS011;7934;48.710;9.024;2024-02-23T08:59:16;3.27;;;1.90;;
15667;SDS011;7934;48.710;9.024;2024-02-23T09:01:54;5.97;;;1.07;;
15667;SDS011;7934;48.710;9.024;2024-02-23T09:08:43;4.35;;;1.23;;
15667;SDS011;7934;48.710;9.024;2024-02-23T09:10:54;3.93;;;1.10;;
15667;SDS011;7934;48.710;9.024;2024-02-23T09:19:32;1.33;;;1.00;;
15667;SDS011;7934;48.710;9.024;2024-02-23T09:25:24;5.80;;;1.27;;
15667;SDS011;7934;48.710;9.024;2024-02-23T09:31:03;3.70;;;0.90;;
15667;SDS011;7934;48.710;9.024;2024-02-23T09:42:26;1.53;;;0.90;;
15667;SDS011;7934;48.710;9.024;2024-02-23T09:44:59;2.87;;;0.80;;
15667;SDS011;7934;48.710;9.024;2024-02-23T09:47:29;1.10;;;0.93;;
15667;SDS011;7934;48.710;9.024;2024-02-23T09:50:17;1.17;;;0.83;;
15667;SDS011;7934;48.710;9.024;2024-02-23T09:53:10;2.50;;;1.20;;
15667;SDS011;7934;48.710;9.024;2024-02-23T09:56:41;3.13;;;1.30;;
15667;SDS011;7934;48.710;9.024;2024-02-23T09:58:37;1.07;;;0.90;;
15667;SDS011;7934;48.710;9.024;2024-02-23T10:01:34;7.63;;;1.07;;
15667;SDS011;7934;48.710;9.024;2024-02-23T10:05:34;2.80;;;1.37;;
15667;SDS011;7934;48.710;9.024;2024-02-23T10:07:30;1.73;;;0.70;;
15667;SDS011;7934;48.710;9.024;2024-02-23T10:10:14;2.20;;;0.90;;
15667;SDS011;7934;48.710;9.024;2024-02-23T10:13:04;3.53;;;1.07;;
15667;SDS011;7934;48.710;9.024;2024-02-23T10:21:48;3.20;;;1.13;;
15667;SDS011;7934;48.710;9.024;2024-02-23T10:24:43;3.17;;;1.20;;
15667;SDS011;7934;48.710;9.024;2024-02-23T10:27:13;6.13;;;1.27;;
15667;SDS011;7934;48.710;9.024;2024-02-23T10:33:25;4.27;;;1.10;;
15667;SDS011;7934;48.710;9.024;2024-02-23T10:42:39;2.77;;;0.90;;
15667;SDS011;7934;48.710;9.024;2024-02-23T10:45:07;5.87;;;1.20;;
15667;SDS011;7934;48.710;9.024;2024-02-23T10:47:48;3.63;;;1.70;;
15667;SDS011;7934;48.710;9.024;2024-02-23T10:50:17;6.30;;;1.40;;
15667;SDS011;7934;48.710;9.024;2024-02-23T10:52:47;3.30;;;1.00;;
15667;SDS011;7934;48.710;9.024;2024-02-23T10:55:17;4.37;;;1.40;;
15667;SDS011;7934;48.710;9.024;2024-02-23T10:57:47;3.27;;;0.90;;
15667;SDS011;7934;48.710;9.024;2024-02-23T11:00:17;1.80;;;1.20;;
15667;SDS011;7934;48.710;9.024;2024-02-23T11:03:27;4.23;;;1.53;;
15667;SDS011;7934;48.710;9.024;2024-02-23T11:05:47;4.30;;;1.20;;
15667;SDS011;7934;48.710;9.024;2024-02-23T11:08:23;2.50;;;1.40;;
15667;SDS011;7934;48.710;9.024;2024-02-23T11:11:08;3.93;;;1.33;;
15667;SDS011;7934;48.710;9.024;2024-02-23T11:13:40;5.17;;;1.30;;
15667;SDS011;7934;48.710;9.024;2024-02-23T11:16:20;5.30;;;1.03;;
15667;SDS011;7934;48.710;9.024;2024-02-23T11:19:03;3.45;;;1.13;;
15667;SDS011;7934;48.710;9.024;2024-02-23T11:21:51;2.93;;;1.20;;
15667;SDS011;7934;48.710;9.024;2024-02-23T11:27:37;1.57;;;0.90;;
15667;SDS011;7934;48.710;9.024;2024-02-23T11:30:41;5.40;;;1.33;;
15667;SDS011;7934;48.710;9.024;2024-02-23T11:33:11;7.87;;;1.30;;
15667;SDS011;7934;48.710;9.024;2024-02-23T11:35:42;3.57;;;1.60;;
15667;SDS011;7934;48.710;9.024;2024-02-23T11:38:16;3.57;;;0.97;;
15667;SDS011;7934;48.710;9.024;2024-02-23T11:40:45;2.30;;;0.90;;
15667;SDS011;7934;48.710;9.024;2024-02-23T11:43:15;3.00;;;1.00;;
15667;SDS011;7934;48.710;9.024;2024-02-23T11:45:50;6.23;;;1.20;;
15667;SDS011;7934;48.710;9.024;2024-02-23T11:48:17;3.77;;;1.43;;
15667;SDS011;7934;48.710;9.024;2024-02-23T11:50:47;4.80;;;1.20;;
15667;SDS011;7934;48.710;9.024;2024-02-23T11:53:15;2.30;;;1.10;;
15667;SDS011;7934;48.710;9.024;2024-02-23T11:55:44;3.53;;;1.00;;
15667;SDS011;7934;48.710;9.024;2024-02-23T11:58:13;4.27;;;1.07;;
15667;SDS011;7934;48.710;9.024;2024-02-23T12:00:40;3.77;;;1.07;;
15667;SDS011;7934;48.710;9.024;2024-02-23T12:03:17;4.63;;;0.90;;
15667;SDS011;7934;48.710;9.024;2024-02-23T12:05:45;5.03;;;1.30;;
15667;SDS011;7934;48.710;9.024;2024-02-23T12:08:12;3.13;;;1.20;;
15667;SDS011;7934;48.710;9.024;2024-02-23T12:10:42;6.17;;;0.97;;
15667;SDS011;7934;48.710;9.024;2024-02-23T12:13:13;5.17;;;1.20;;
15667;SDS011;7934;48.710;9.024;2024-02-23T12:15:45;6.63;;;1.30;;
15667;SDS011;7934;48.710;9.024;2024-02-23T12:18:21;6.33;;;1.63;;
15667;SDS011;7934;48.710;9.024;2024-02-23T12:21:05;6.33;;;1.20;;
15667;SDS011;7934;48.710;9.024;2024-02-23T12:23:42;3.73;;;1.37;;
15667;SDS011;7934;48.710;9.024;2024-02-23T12:26:15;2.93;;;0.90;;
15667;SDS011;7934;48.710;9.024;2024-02-23T12:28:46;4.43;;;1.03;;
15667;SDS011;7934;48.710;9.024;2024-02-23T12:31:21;5.23;;;1.27;;
15667;SDS011;7934;48.710;9.024;2024-02-23T12:33:54;3.40;;;1.20;;
15667;SDS011;7934;48.710;9.024;2024-02-23T12:39:55;2.63;;;0.97;;
15667;SDS011;7934;48.710;9.024;2024-02-23T12:43:06;1.53;;;0.63;;
15667;SDS011;7934;48.710;9.024;2024-02-23T12:45:47;3.47;;;0.83;;
15667;SDS011;7934;48.710;9.024;2024-02-23T13:00:14;2.53;;;1.00;;
15667;SDS011;7934;48.710;9.024;2024-02-23T13:03:02;2.67;;;0.97;;
15667;SDS011;7934;48.710;9.024;2024-02-23T13:07:36;4.93;;;1.30;;
15667;SDS011;7934;48.710;9.024;2024-02-23T13:11:33;2.03;;;1.00;;
15667;SDS011;7934;48.710;9.024;2024-02-23T13:14:30;7.50;;;1.50;;
15667;SDS011;7934;48.710;9.024;2024-02-23T13:17:19;3.93;;;1.40;;
15667;SDS011;7934;48.710;9.024;2024-02-23T13:19:56;3.23;;;1.00;;
15667;SDS011;7934;48.710;9.024;2024-02-23T13:22:24;2.20;;;1.00;;
15667;SDS011;7934;48.710;9.024;2024-02-23T13:24:53;7.20;;;1.17;;
15667;SDS011;7934;48.710;9.024;2024-02-23T13:27:23;2.97;;;1.40;;
15667;SDS011;7934;48.710;9.024;2024-02-23T13:29:57;3.90;;;1.67;;
15667;SDS011;7934;48.710;9.024;2024-02-23T13:32:27;1.93;;;1.27;;
15667;SDS011;7934;48.710;9.024;2024-02-23T13:35:09;3.70;;;1.60;;
15667;SDS011;7934;48.710;9.024;2024-02-23T13:45:57;1.03;;;0.97;;
15667;SDS011;7934;48.710;9.024;2024-02-23T13:49:17;8.53;;;1.23;;
15667;SDS011;7934;48.710;9.024;2024-02-23T13:53:00;3.67;;;1.30;;
15667;SDS011;7934;48.710;9.024;2024-02-23T13:55:29;3.93;;;1.00;;
15667;SDS011;7934;48.710;9.024;2024-02-23T13:57:56;6.43;;;1.37;;
15667;SDS011;7934;48.710;9.024;2024-02-23T14:00:28;6.70;;;1.77;;
15667;SDS011;7934;48.710;9.024;2024-02-23T14:02:57;5.37;;;1.50;;
15667;SDS011;7934;48.710;9.024;2024-02-23T14:05:45;9.23;;;1.80;;
15667;SDS011;7934;48.710;9.024;2024-02-23T14:08:21;3.80;;;1.30;;
15667;SDS011;7934;48.710;9.024;2024-02-23T14:10:58;6.00;;;1.43;;
15667;SDS011;7934;48.710;9.024;2024-02-23T14:13:28;5.93;;;1.50;;
15667;SDS011;7934;48.710;9.024;2024-02-23T14:15:55;3.30;;;1.60;;
15667;SDS011;7934;48.710;9.024;2024-02-23T14:18:36;6.30;;;1.53;;
15667;SDS011;7934;48.710;9.024;2024-02-23T14:21:10;4.73;;;1.70;;
15667;SDS011;7934;48.710;9.024;2024-02-23T14:23:40;5.37;;;1.53;;
15667;SDS011;7934;48.710;9.024;2024-02-23T14:26:14;2.85;;;1.40;;
15667;SDS011;7934;48.710;9.024;2024-02-23T14:28:50;2.50;;;1.77;;
15667;SDS011;7934;48.710;9.024;2024-02-23T14:34:11;5.10;;;1.30;;
15667;SDS011;7934;48.710;9.024;2024-02-23T14:34:33;8.03;;;2.13;;
15667;SDS011;7934;48.710;9.024;2024-02-23T14:37:03;5.17;;;1.53;;
15667;SDS011;7934;48.710;9.024;2024-02-23T14:39:33;2.07;;;1.10;;
15667;SDS011;7934;48.710;9.024;2024-02-23T14:42:04;3.20;;;2.07;;
15667;SDS011;7934;48.710;9.024;2024-02-23T14:45:00;5.50;;;1.20;;
15667;SDS011;7934;48.710;9.024;2024-02-23T14:47:50;2.40;;;1.00;;
15667;SDS011;7934;48.710;9.024;2024-02-23T14:51:12;4.27;;;1.27;;
15667;SDS011;7934;48.710;9.024;2024-02-23T16:06:01;1.63;;;1.20;;
15667;SDS011;7934;48.710;9.024;2024-02-23T16:12:01;3.77;;;1.70;;
15667;SDS011;7934;48.710;9.024;2024-02-23T16:14:43;3.83;;;2.30;;
15667;SDS011;7934;48.710;9.024;2024-02-23T16:29:10;9.23;;;2.13;;
15667;SDS011;7934;48.710;9.024;2024-02-23T16:31:48;9.93;;;3.13;;
15667;SDS011;7934;48.710;9.024;2024-02-23T16:42:46;11.10;;;3.07;;
15667;SDS011;7934;48.710;9.024;2024-02-23T17:01:31;3.70;;;1.67;;
15667;SDS011;7934;48.710;9.024;2024-02-23T17:04:00;6.30;;;1.60;;
15667;SDS011;7934;48.710;9.024;2024-02-23T17:06:27;4.60;;;1.57;;
15667;SDS011;7934;48.710;9.024;2024-02-23T17:11:16;5.17;;;2.10;;
15667;SDS011;7934;48.710;9.024;2024-02-23T17:12:21;5.87;;;1.53;;
15667;SDS011;7934;48.710;9.024;2024-02-23T17:18:23;3.87;;;1.50;;
15667;SDS011;7934;48.710;9.024;2024-02-23T17:22:19;2.83;;;1.50;;
15667;SDS011;7934;48.710;9.024;2024-02-23T17:24:16;3.67;;;1.70;;
15667;SDS011;7934;48.710;9.024;2024-02-23T17:27:27;2.97;;;1.57;;
15667;SDS011;7934;48.710;9.024;2024-02-23T17:29:45;7.47;;;1.83;;
15667;SDS011;7934;48.710;9.024;2024-02-23T17:32:17;4.23;;;1.80;;
15667;SDS011;7934;48.710;9.024;2024-02-23T17:34:54;7.30;;;1.87;;
15667;SDS011;7934;48.710;9.024;2024-02-23T17:37:44;3.07;;;1.10;;
15667;SDS011;7934;48.710;9.024;2024-02-23T17:40:14;4.37;;;1.70;;
15667;SDS011;7934;48.710;9.024;2024-02-23T17:42:41;4.80;;;2.23;;
15667;SDS011;7934;48.710;9.024;2024-02-23T17:45:11;8.07;;;2.63;;
15667;SDS011;7934;48.710;9.024;2024-02-23T17:47:40;4.17;;;2.00;;
15667;SDS011;7934;48.710;9.024;2024-02-23T18:02:09;2.73;;;1.70;;
15667;SDS011;7934;48.710;9.024;2024-02-23T18:11:46;8.07;;;2.43;;
15667;SDS011;7934;48.710;9.024;2024-02-23T18:16:52;12.00;;;1.73;;
15667;SDS011;7934;48.710;9.024;2024-02-23T18:19:24;4.33;;;1.90;;
15667;SDS011;7934;48.710;9.024;2024-02-23T18:22:04;5.27;;;1.70;;
15667;SDS011;7934;48.710;9.024;2024-02-23T18:25:03;5.17;;;1.80;;
15667;SDS011;7934;48.710;9.024;2024-02-23T18:27:20;3.40;;;1.70;;
15667;SDS011;7934;48.710;9.024;2024-02-23T18:29:50;3.87;;;1.60;;
15667;SDS011;7934;48.710;9.024;2024-02-23T18:32:18;7.93;;;2.10;;
15667;SDS011;7934;48.710;9.024;2024-02-23T18:35:06;5.20;;;2.23;;
15667;SDS011;7934;48.710;9.024;2024-02-23T18:37:35;9.07;;;2.57;;
15667;SDS011;7934;48.710;9.024;2024-02-23T18:40:03;9.93;;;2.80;;
15667;SDS011;7934;48.710;9.024;2024-02-23T18:42:46;4.43;;;2.27;;
15667;SDS011;7934;48.710;9.024;2024-02-23T19:18:03;2.40;;;1.60;;
15667;SDS011;7934;48.710;9.024;2024-02-23T19:20:33;3.70;;;1.87;;
15667;SDS011;7934;48.710;9.024;2024-02-23T19:23:01;6.87;;;1.60;;
15667;SDS011;7934;48.710;9.024;2024-02-23T19:25:43;4.00;;;1.70;;
15667;SDS011;7934;48.710;9.024;2024-02-23T19:28:46;3.13;;;1.67;;
15667;SDS011;7934;48.710;9.024;2024-02-23T19:33:35;2.43;;;1.90;;
15667;SDS011;7934;48.710;9.024;2024-02-23T19:46:03;6.37;;;2.40;;
15667;SDS011;7934;48.710;9.024;2024-02-23T19:48:48;5.70;;;2.20;;
15667;SDS011;7934;48.710;9.024;2024-02-23T19:51:31;6.53;;;2.83;;
15667;SDS011;7934;48.710;9.024;2024-02-23T19:54:00;7.23;;;2.27;;
15667;SDS011;7934;48.710;9.024;2024-02-23T19:57:00;5.20;;;2.27;;
15667;SDS011;7934;48.710;9.024;2024-02-23T19:59:35;5.80;;;2.40;;
15667;SDS011;7934;48.710;9.024;2024-02-23T20:02:05;8.77;;;2.40;;
15667;SDS011;7934;48.710;9.024;2024-02-23T20:04:40;3.23;;;2.07;;
15667;SDS011;7934;48.710;9.024;2024-02-23T20:07:07;7.47;;;1.80;;
15667;SDS011;7934;48.710;9.024;2024-02-23T20:09:47;3.20;;;2.30;;
15667;SDS011;7934;48.710;9.024;2024-02-23T20:12:15;2.80;;;1.90;;
15667;SDS011;7934;48.710;9.024;2024-02-23T20:14:45;4.97;;;1.73;;
15667;SDS011;7934;48.710;9.024;2024-02-23T20:20:02;7.73;;;2.10;;
15667;SDS011;7934;48.710;9.024;2024-02-23T20:22:44;6.53;;;1.80;;
15667;SDS011;7934;48.710;9.024;2024-02-23T20:25:11;7.57;;;1.80;;
15667;SDS011;7934;48.710;9.024;2024-02-23T20:27:42;6.30;;;1.50;;
15667;SDS011;7934;48.710;9.024;2024-02-23T20:30:37;6.37;;;1.53;;
15667;SDS011;7934;48.710;9.024;2024-02-23T20:33:32;2.60;;;1.70;;
15667;SDS011;7934;48.710;9.024;2024-02-23T20:39:19;3.00;;;1.80;;
15667;SDS011;7934;48.710;9.024;2024-02-23T20:52:11;5.40;;;1.97;;
15667;SDS011;7934;48.710;9.024;2024-02-23T20:54:55;4.97;;;2.73;;
15667;SDS011;7934;48.710;9.024;2024-02-23T21:00:41;8.67;;;2.80;;
15667;SDS011;7934;48.710;9.024;2024-02-23T21:03:26;4.90;;;2.47;;
15667;SDS011;7934;48.710;9.024;2024-02-23T21:06:00;6.37;;;2.63;;
15667;SDS011;7934;48.710;9.024;2024-02-23T21:08:30;3.33;;;1.40;;
15667;SDS011;7934;48.710;9.024;2024-02-23T21:11:04;2.17;;;1.90;;
15667;SDS011;7934;48.710;9.024;2024-02-23T21:13:35;13.63;;;6.60;;
15667;SDS011;7934;48.710;9.024;2024-02-23T21:16:02;23.13;;;8.07;;
15667;SDS011;7934;48.710;9.024;2024-02-23T21:18:38;27.93;;;10.70;;
15667;SDS011;7934;48.710;9.024;2024-02-23T21:21:11;25.50;;;9.70;;
15667;SDS011;7934;48.710;9.024;2024-02-23T21:24:15;24.33;;;7.80;;
15667;SDS011;7934;48.710;9.024;2024-02-23T21:26:46;10.40;;;4.23;;
15667;SDS011;7934;48.710;9.024;2024-02-23T21:29:30;5.97;;;2.90;;
15667;SDS011;7934;48.710;9.024;2024-02-23T21:32:08;9.77;;;4.13;;
15667;SDS011;7934;48.710;9.024;2024-02-23T21:34:54;7.10;;;3.90;;
15667;SDS011;7934;48.710;9.024;2024-02-23T21:37:53;6.67;;;2.80;;
15667;SDS011;7934;48.710;9.024;2024-02-23T21:40:27;6.10;;;3.73;;
15667;SDS011;7934;48.710;9.024;2024-02-23T21:42:56;9.83;;;4.00;;
15667;SDS011;7934;48.710;9.024;2024-02-23T21:45:40;6.83;;;4.03;;
15667;SDS011;7934;48.710;9.024;2024-02-23T21:48:16;10.97;;;4.40;;
15667;SDS011;7934;48.710;9.024;2024-02-23T21:51:00;5.93;;;4.40;;
15667;SDS011;7934;48.710;9.024;2024-02-23T21:53:37;8.33;;;4.80;;
15667;SDS011;7934;48.710;9.024;2024-02-23T21:56:33;14.57;;;5.60;;
15667;SDS011;7934;48.710;9.024;2024-02-23T21:59:22;8.43;;;4.27;;